Map

Track Data

SID SEASON NUMBER BASIN SUBBASIN NAME ISO_TIME NATURE LAT LON WMO_WIND WMO_PRES WMO_AGENCY TRACK_TYPE DIST2LAND LANDFALL IFLAG USA_AGENCY USA_ATCF_ID USA_LAT USA_LON USA_RECORD USA_STATUS USA_WIND USA_PRES USA_SSHS USA_R34_NE USA_R34_SE USA_R34_SW USA_R34_NW USA_R50_NE USA_R50_SE USA_R50_SW USA_R50_NW USA_R64_NE USA_R64_SE USA_R64_SW USA_R64_NW USA_POCI USA_ROCI USA_RMW USA_EYE TOKYO_LAT TOKYO_LON TOKYO_GRADE TOKYO_WIND TOKYO_PRES TOKYO_R50_DIR TOKYO_R50_LONG TOKYO_R50_SHORT TOKYO_R30_DIR TOKYO_R30_LONG TOKYO_R30_SHORT TOKYO_LAND CMA_LAT CMA_LON CMA_CAT CMA_WIND CMA_PRES HKO_LAT HKO_LON HKO_CAT HKO_WIND HKO_PRES NEWDELHI_LAT NEWDELHI_LON NEWDELHI_GRADE NEWDELHI_WIND NEWDELHI_PRES NEWDELHI_CI NEWDELHI_DP NEWDELHI_POCI REUNION_LAT REUNION_LON REUNION_TYPE REUNION_WIND REUNION_PRES REUNION_TNUM REUNION_CI REUNION_RMW REUNION_R34_NE REUNION_R34_SE REUNION_R34_SW REUNION_R34_NW REUNION_R50_NE REUNION_R50_SE REUNION_R50_SW REUNION_R50_NW REUNION_R64_NE REUNION_R64_SE REUNION_R64_SW REUNION_R64_NW BOM_LAT BOM_LON BOM_TYPE BOM_WIND BOM_PRES BOM_TNUM BOM_CI BOM_RMW BOM_R34_NE BOM_R34_SE BOM_R34_SW BOM_R34_NW BOM_R50_NE BOM_R50_SE BOM_R50_SW BOM_R50_NW BOM_R64_NE BOM_R64_SE BOM_R64_SW BOM_R64_NW BOM_ROCI BOM_POCI BOM_EYE BOM_POS_METHOD BOM_PRES_METHOD NADI_LAT NADI_LON NADI_CAT NADI_WIND NADI_PRES WELLINGTON_LAT WELLINGTON_LON WELLINGTON_WIND WELLINGTON_PRES DS824_LAT DS824_LON DS824_STAGE DS824_WIND DS824_PRES TD9636_LAT TD9636_LON TD9636_STAGE TD9636_WIND TD9636_PRES TD9635_LAT TD9635_LON TD9635_WIND TD9635_PRES TD9635_ROCI NEUMANN_LAT NEUMANN_LON NEUMANN_CLASS NEUMANN_WIND NEUMANN_PRES MLC_LAT MLC_LON MLC_CLASS MLC_WIND MLC_PRES USA_GUST BOM_GUST BOM_GUST_PER REUNION_GUST REUNION_GUST_PER USA_SEAHGT USA_SEARAD_NE USA_SEARAD_SE USA_SEARAD_SW USA_SEARAD_NW STORM_SPEED STORM_DIR
1944027S11180 1944 6 SP MM NOT_NAMED 1944-01-27 00:00:00 NR -10.8000 179.800 main 604 582 __________O___ -1 -10.8000 179.800 4 6 145
1944027S11180 1944 6 SP MM NOT_NAMED 1944-01-27 03:00:00 NR -11.0407 179.972 main 582 549 __________P___ -1 -11.0407 179.972 4 6 145
1944027S11180 1944 6 SP MM NOT_NAMED 1944-01-27 06:00:00 NR -11.2751 180.145 main 549 527 __________P___ -1 -11.2751 -179.855 4 6 143
1944027S11180 1944 6 SP MM NOT_NAMED 1944-01-27 09:00:00 NR -11.4969 180.320 main 527 507 __________P___ -1 -11.4969 -179.680 4 6 141
1944027S11180 1944 6 SP MM NOT_NAMED 1944-01-27 12:00:00 NR -11.7000 180.500 main 507 489 __________O___ -1 -11.7000 -179.500 4 5 137
1944027S11180 1944 6 SP MM NOT_NAMED 1944-01-27 15:00:00 NR -11.8812 180.685 main 489 480 __________P___ -1 -11.8812 -179.315 4 5 134
1944027S11180 1944 6 SP MM NOT_NAMED 1944-01-27 18:00:00 NR -12.0499 180.878 main 482 463 __________P___ -1 -12.0499 -179.122 4 5 131
1944027S11180 1944 6 SP MM NOT_NAMED 1944-01-27 21:00:00 NR -12.2187 181.082 main 466 447 __________P___ -1 -12.2187 -178.918 4 5 130
1944027S11180 1944 6 SP MM NOT_NAMED 1944-01-28 00:00:00 NR -12.4000 181.300 main 451 438 __________O___ -1 -12.4000 -178.700 4 6 132
1944027S11180 1944 6 SP MM NOT_NAMED 1944-01-28 03:00:00 NR -12.6147 181.540 main 438 427 __________P___ -1 -12.6147 -178.460 4 7 133
1944027S11180 1944 6 SP MM NOT_NAMED 1944-01-28 06:00:00 NR -12.8425 181.792 main 432 414 __________P___ -1 -12.8425 -178.208 4 7 133
1944027S11180 1944 6 SP MM NOT_NAMED 1944-01-28 09:00:00 NR -13.0741 182.049 main 414 408 __________P___ -1 -13.0741 -177.951 4 7 133
1944027S11180 1944 6 SP MM NOT_NAMED 1944-01-28 12:00:00 NR -13.3000 182.300 main 414 411 __________O___ -1 -13.3000 -177.700 4 6 134
1944027S11180 1944 6 SP MM NOT_NAMED 1944-01-28 15:00:00 NR -13.5029 182.512 main 411 410 __________P___ -1 -13.5029 -177.488 4 6 134
1944027S11180 1944 6 SP MM NOT_NAMED 1944-01-28 18:00:00 NR -13.6996 182.721 main 410 410 __________P___ -1 -13.6996 -177.279 4 6 133
1944027S11180 1944 6 SP MM NOT_NAMED 1944-01-28 21:00:00 NR -13.8966 182.944 main 412 412 __________P___ -1 -13.8966 -177.056 4 6 131
1944027S11180 1944 6 SP MM NOT_NAMED 1944-01-29 00:00:00 NR -14.1000 183.200 main 425 409 __________O___ -1 -14.1000 -176.800 4 7 127
1944027S11180 1944 6 SP MM NOT_NAMED 1944-01-29 03:00:00 NR -14.3180 183.522 main 409 373 __________P___ -1 -14.3180 -176.478 4 8 124
1944027S11180 1944 6 SP MM NOT_NAMED 1944-01-29 06:00:00 NR -14.5427 183.877 main 373 350 __________P___ -1 -14.5427 -176.123 4 8 123
1944027S11180 1944 6 SP MM NOT_NAMED 1944-01-29 09:00:00 NR -14.7711 184.244 main 354 326 __________P___ -1 -14.7711 -175.756 4 8 123
1944027S11180 1944 6 SP MM NOT_NAMED 1944-01-29 12:00:00 NR -15.0000 184.600 main 326 314 __________O___ -1 -15.0000 -175.400 4 7 126
1944027S11180 1944 6 SP MM NOT_NAMED 1944-01-29 15:00:00 NR -15.1871 184.835 main 320 305 __________P___ -1 -15.1871 -175.165 4 6 130
1944027S11180 1944 6 SP MM NOT_NAMED 1944-01-29 18:00:00 NR -15.3804 185.068 main 305 295 __________P___ -1 -15.3804 -174.932 4 7 129
1944027S11180 1944 6 SP MM NOT_NAMED 1944-01-29 21:00:00 NR -15.6085 185.367 main 294 287 __________P___ -1 -15.6085 -174.633 4 9 126
1944027S11180 1944 6 SP MM NOT_NAMED 1944-01-30 00:00:00 NR -15.9000 185.800 main 291 285 __________O___ -1 -15.9000 -174.200 4 13 123
1944027S11180 1944 6 SP MM NOT_NAMED 1944-01-30 03:00:00 NR -16.3071 186.471 main 296 296 __________P___ -1 -16.3071 -173.529 4 17 122
1944027S11180 1944 6 SP MM NOT_NAMED 1944-01-30 06:00:00 NR -16.7722 187.277 main 335 335 __________P___ -1 -16.7722 -172.723 4 19 120
1944027S11180 1944 6 SP MM NOT_NAMED 1944-01-30 09:00:00 NR -17.2509 188.146 main 393 393 __________P___ -1 -17.2509 -171.854 4 19 119
1944027S11180 1944 6 SP MM NOT_NAMED 1944-01-30 12:00:00 NR -17.7000 189.000 main 455 455 __________O___ -1 -17.7000 -171.000 4 17 118
1944027S11180 1944 6 SP MM NOT_NAMED 1944-01-30 15:00:00 NR -18.0334 189.668 main 512 512 __________P___ -1 -18.0334 -170.332 4 14 117
1944027S11180 1944 6 SP MM NOT_NAMED 1944-01-30 18:00:00 NR -18.3377 190.316 main 570 570 __________P___ -1 -18.3377 -169.684 4 14 116
1944027S11180 1944 6 SP MM NOT_NAMED 1944-01-30 21:00:00 NR -18.6484 191.006 main 636 636 __________P___ -1 -18.6484 -168.994 4 16 115
1944027S11180 1944 6 SP MM NOT_NAMED 1944-01-31 00:00:00 NR -19.0000 191.800 main 721 721 __________O___ -1 -19.0000 -168.200 4 19 115
1944027S11180 1944 6 SP MM NOT_NAMED 1944-01-31 03:00:00 NR -19.4498 192.800 main 822 822 __________P___ -1 -19.4498 -167.200 4 22 115
1944027S11180 1944 6 SP MM NOT_NAMED 1944-01-31 06:00:00 NR -19.9373 193.908 main 941 941 __________P___ -1 -19.9373 -166.092 4 23 115
1944027S11180 1944 6 SP MM NOT_NAMED 1944-01-31 09:00:00 NR -20.4308 195.063 main 1070 1070 __________P___ -1 -20.4308 -164.937 4 24 114
1944027S11180 1944 6 SP MM NOT_NAMED 1944-01-31 12:00:00 NR -20.9000 196.200 main 1193 1193 __________O___ -1 -20.9000 -163.800 4 22 113
1944027S11180 1944 6 SP MM NOT_NAMED 1944-01-31 15:00:00 NR -21.3046 197.219 main 1302 1302 __________P___ -1 -21.3046 -162.781 4 20 113
1944027S11180 1944 6 SP MM NOT_NAMED 1944-01-31 18:00:00 NR -21.6831 198.211 main 1411 1411 __________P___ -1 -21.6831 -161.789 4 20 112
1944027S11180 1944 6 SP MM NOT_NAMED 1944-01-31 21:00:00 NR -22.0452 199.197 main 1514 1514 __________P___ -1 -22.0452 -160.803 4 20 111
1944027S11180 1944 6 SP MM NOT_NAMED 1944-02-01 00:00:00 NR -22.4000 200.200 main 1624 1624 __________O___ -1 -22.4000 -159.800 4 20 111
1944027S11180 1944 6 SP MM NOT_NAMED 1944-02-01 03:00:00 NR -22.7631 201.239 main 1734 1734 __________P___ -1 -22.7631 -158.761 4 21 110
1944027S11180 1944 6 SP MM NOT_NAMED 1944-02-01 06:00:00 NR -23.1192 202.300 main 1847 1847 __________P___ -1 -23.1192 -157.700 4 21 110
1944027S11180 1944 6 SP MM NOT_NAMED 1944-02-01 09:00:00 NR -23.4658 203.386 main 1966 1966 __________P___ -1 -23.4658 -156.614 4 21 109
1944027S11180 1944 6 SP MM NOT_NAMED 1944-02-01 12:00:00 NR -23.8000 204.500 main 2080 2080 __________O___ -1 -23.8000 -155.500 4 22 108
1944027S11180 1944 6 SP MM NOT_NAMED 1944-02-01 15:00:00 NR -24.1197 205.644 main 2194 2194 __________P___ -1 -24.1197 -154.356 4 22 107
1944027S11180 1944 6 SP MM NOT_NAMED 1944-02-01 18:00:00 NR -24.4254 206.813 main 2317 2317 __________P___ -1 -24.4254 -153.187 4 22 106
1944027S11180 1944 6 SP MM NOT_NAMED 1944-02-01 21:00:00 NR -24.7184 208.001 main 2441 2441 __________P___ -1 -24.7184 -151.999 4 22 105
1944027S11180 1944 6 SP MM NOT_NAMED 1944-02-02 00:00:00 NR -25.0000 209.200 main 2564 __________O___ -1 -25.0000 -150.800 4 22 105

Digital Typhoon Data and Search

About IBTrACS Database

This database is a web-friendly format of International Best Track Archive for Climate Stewardship (IBTrACS), a global best track data archive curated by NOAA dating back to 1842.

Updated: 2021-10-19